Time;durP1;ratioP1;P1;durP2;ratioP2;P2;SDS_P1;SDS_P2;PMS_P1;PMS_P2;Temp;Humidity;BMP_temperature;BMP_pressure;BME280_temperature;BME280_humidity;BME280_pressure;Samples;Min_cycle;Max_cycle;Signal;HPM_P1;HPM_P2
2022/07/09 00:01:02;;;;;;;3.03;2.73;;;19.50;97.10;;;;;;4971622;28;20631;-67
2022/07/09 00:03:29;;;;;;;3.20;2.90;;;19.50;97.40;;;;;;4971673;28;21235;-68
2022/07/09 00:05:56;;;;;;;3.10;2.80;;;19.40;97.60;;;;;;4971451;28;20620;-69
2022/07/09 00:08:23;;;;;;;3.10;2.90;;;19.40;97.90;;;;;;4991123;28;20648;-68
2022/07/09 00:10:50;;;;;;;3.20;3.00;;;19.40;98.10;;;;;;4973429;28;20668;-68
2022/07/09 00:13:16;;;;;;;2.57;2.37;;;19.40;98.30;;;;;;4973587;28;20729;-68
2022/07/09 00:15:43;;;;;;;3.23;2.93;;;19.30;98.50;;;;;;4991161;28;20618;-68
2022/07/09 00:18:11;;;;;;;5.03;2.90;;;19.30;98.60;;;;;;4978617;28;20665;-68
2022/07/09 00:20:38;;;;;;;3.23;2.93;;;19.30;98.80;;;;;;4970846;28;20660;-68
2022/07/09 00:23:04;;;;;;;3.50;3.23;;;19.30;98.90;;;;;;4970779;28;20666;-68
2022/07/09 00:25:31;;;;;;;3.20;3.00;;;19.30;99.10;;;;;;4971728;28;20981;-68
2022/07/09 00:27:58;;;;;;;3.10;2.90;;;19.30;99.10;;;;;;4970559;28;20673;-68
2022/07/09 00:30:25;;;;;;;2.90;2.70;;;19.40;99.40;;;;;;4970344;28;20619;-68
2022/07/09 00:32:52;;;;;;;2.83;2.60;;;19.40;99.10;;;;;;4971152;28;20641;-68
2022/07/09 00:35:19;;;;;;;4.00;2.70;;;19.30;99.20;;;;;;4972116;28;20631;-69
2022/07/09 00:37:46;;;;;;;2.90;2.70;;;19.40;99.20;;;;;;4980738;28;21063;-68
2022/07/09 00:40:13;;;;;;;3.03;2.90;;;19.30;99.30;;;;;;4991703;28;20714;-68
2022/07/09 00:42:39;;;;;;;2.93;2.77;;;19.30;99.40;;;;;;4990258;28;20614;-68
2022/07/09 00:45:07;;;;;;;4.63;2.97;;;19.30;99.60;;;;;;4990134;28;20658;-68
2022/07/09 00:47:34;;;;;;;3.90;2.90;;;19.30;99.70;;;;;;4991052;28;21506;-68
2022/07/09 00:50:01;;;;;;;2.80;2.60;;;19.30;99.80;;;;;;4977673;28;20638;-69
2022/07/09 00:52:30;;;;;;;4.77;2.80;;;19.30;99.80;;;;;;4975135;28;20734;-68
2022/07/09 00:55:00;;;;;;;3.70;3.40;;;19.30;99.90;;;;;;4989927;28;21288;-68
2022/07/09 00:57:28;;;;;;;3.43;3.13;;;19.20;99.90;;;;;;4980172;28;20637;-65
2022/07/09 00:59:56;;;;;;;2.70;2.50;;;19.30;99.90;;;;;;4970438;28;20637;-68
2022/07/09 01:02:23;;;;;;;4.57;3.30;;;19.20;99.90;;;;;;4972159;28;21167;-68
2022/07/09 01:04:51;;;;;;;3.10;2.90;;;19.20;99.90;;;;;;4971378;28;20762;-68
2022/07/09 01:07:18;;;;;;;4.03;3.10;;;19.10;99.90;;;;;;4979045;28;20642;-67
2022/07/09 01:09:44;;;;;;;3.40;3.10;;;19.10;99.90;;;;;;4990659;28;20646;-68
2022/07/09 01:12:11;;;;;;;3.30;3.00;;;19.10;99.90;;;;;;4980199;28;20665;-66
2022/07/09 01:14:38;;;;;;;3.07;2.87;;;19.10;99.90;;;;;;4972414;28;20737;-67
2022/07/09 01:17:07;;;;;;;3.13;2.93;;;19.00;99.90;;;;;;4982858;28;20662;-68
2022/07/09 01:19:35;;;;;;;4.90;3.17;;;19.00;99.90;;;;;;4987401;28;20692;-68
2022/07/09 01:22:02;;;;;;;6.23;3.17;;;19.00;99.90;;;;;;4983356;28;20734;-68
2022/07/09 01:24:33;;;;;;;3.37;3.13;;;18.90;99.90;;;;;;4970816;28;20762;-68
2022/07/09 01:27:00;;;;;;;3.70;3.37;;;18.90;99.90;;;;;;4974647;28;20672;-69
2022/07/09 01:29:27;;;;;;;3.23;3.10;;;19.00;99.90;;;;;;4990240;28;20664;-70
2022/07/09 01:31:54;;;;;;;4.53;3.57;;;19.00;99.90;;;;;;4989404;28;20653;-68
2022/07/09 01:34:21;;;;;;;6.30;3.87;;;18.90;99.90;;;;;;4989948;28;20819;-69
2022/07/09 01:36:48;;;;;;;4.10;3.77;;;19.00;99.90;;;;;;4987472;28;20646;-67
2022/07/09 01:39:14;;;;;;;5.87;3.77;;;19.00;99.90;;;;;;4973342;28;20646;-68
2022/07/09 01:41:41;;;;;;;4.80;3.50;;;19.00;99.90;;;;;;4984884;28;20634;-68
2022/07/09 01:44:08;;;;;;;4.60;3.20;;;19.00;99.90;;;;;;4978230;28;21329;-68
2022/07/09 01:46:35;;;;;;;4.63;3.83;;;19.00;99.90;;;;;;4973394;28;20807;-67
2022/07/09 01:49:03;;;;;;;3.60;3.30;;;19.00;99.90;;;;;;4970446;28;20682;-69
2022/07/09 01:51:34;;;;;;;5.27;3.40;;;18.90;99.90;;;;;;4970110;28;20663;-69
2022/07/09 01:54:01;;;;;;;3.67;3.37;;;18.90;99.90;;;;;;4989610;28;20642;-68
2022/07/09 01:56:28;;;;;;;4.80;3.50;;;18.90;99.90;;;;;;4990311;28;20610;-69
2022/07/09 01:58:55;;;;;;;4.37;3.40;;;19.00;99.90;;;;;;4989298;28;20658;-69
2022/07/09 02:01:22;;;;;;;3.83;3.53;;;19.00;99.90;;;;;;4994651;28;20669;-69
2022/07/09 02:03:49;;;;;;;5.23;3.40;;;19.00;99.90;;;;;;4979170;28;20738;-68
2022/07/09 02:06:16;;;;;;;3.73;3.40;;;19.00;99.90;;;;;;4992261;28;20637;-69
2022/07/09 02:08:42;;;;;;;3.27;3.07;;;19.00;99.90;;;;;;4980119;28;20655;-70
2022/07/09 02:11:10;;;;;;;3.50;3.30;;;19.00;99.90;;;;;;4973685;28;21278;-68
2022/07/09 02:13:37;;;;;;;2.80;2.70;;;18.90;99.90;;;;;;4973096;28;20631;-68
2022/07/09 02:16:04;;;;;;;3.47;3.27;;;18.90;99.90;;;;;;4989450;28;20668;-68
2022/07/09 02:18:31;;;;;;;8.10;3.77;;;18.70;99.90;;;;;;4987588;28;20665;-69
2022/07/09 02:20:58;;;;;;;4.03;2.80;;;18.70;99.90;;;;;;4973997;28;20627;-69
2022/07/09 02:23:25;;;;;;;4.00;3.70;;;18.70;99.90;;;;;;4976153;28;20629;-69
2022/07/09 02:25:52;;;;;;;3.47;3.27;;;18.60;99.90;;;;;;4993486;28;20661;-68
2022/07/09 02:28:18;;;;;;;3.60;3.33;;;18.60;99.90;;;;;;4992181;28;21160;-69
2022/07/09 02:30:45;;;;;;;3.50;3.20;;;18.60;99.90;;;;;;4994286;28;21042;-69
2022/07/09 02:33:12;;;;;;;3.87;3.50;;;18.60;99.90;;;;;;4984265;28;20646;-69
2022/07/09 02:35:39;;;;;;;3.90;3.50;;;18.60;99.90;;;;;;4980483;28;20869;-67
2022/07/09 02:38:06;;;;;;;3.70;3.40;;;18.60;99.90;;;;;;4988117;28;21254;-68
2022/07/09 02:40:33;;;;;;;3.23;3.03;;;18.50;99.90;;;;;;4992993;28;20618;-68
2022/07/09 02:43:00;;;;;;;3.57;3.27;;;18.40;99.90;;;;;;4978635;28;20649;-69
2022/07/09 02:45:26;;;;;;;3.57;3.27;;;18.30;99.90;;;;;;4972645;28;20662;-67
2022/07/09 02:47:53;;;;;;;4.67;3.50;;;18.20;99.90;;;;;;4987722;28;21552;-69
2022/07/09 02:50:20;;;;;;;3.73;2.97;;;18.10;99.90;;;;;;4992409;28;20632;-67
2022/07/09 02:52:47;;;;;;;2.90;2.73;;;18.10;99.90;;;;;;4979822;28;20637;-68
2022/07/09 02:55:13;;;;;;;3.43;3.20;;;18.10;99.90;;;;;;4973379;28;20619;-70
2022/07/09 02:57:40;;;;;;;4.00;3.27;;;18.10;99.90;;;;;;4974841;28;20639;-68
2022/07/09 03:00:08;;;;;;;3.50;3.20;;;18.00;99.90;;;;;;4972057;28;20618;-69
2022/07/09 03:02:34;;;;;;;4.83;3.30;;;17.90;99.90;;;;;;4983914;28;20638;-65
2022/07/09 03:05:02;;;;;;;7.10;3.30;;;17.90;99.90;;;;;;4993102;28;20707;-69
2022/07/09 03:07:29;;;;;;;4.50;3.07;;;17.90;99.90;;;;;;4993032;28;21240;-67
2022/07/09 03:09:56;;;;;;;4.53;3.57;;;17.90;99.90;;;;;;4993674;28;21043;-68
2022/07/09 03:12:23;;;;;;;3.67;2.90;;;17.90;99.90;;;;;;4991114;28;20665;-68
2022/07/09 03:14:49;;;;;;;4.40;3.33;;;17.90;99.90;;;;;;4989705;28;20680;-66
2022/07/09 03:17:16;;;;;;;3.33;3.03;;;17.80;99.90;;;;;;4983572;28;20639;-68
2022/07/09 03:19:43;;;;;;;3.47;3.20;;;17.70;99.90;;;;;;4973522;28;20659;-67
2022/07/09 03:22:11;;;;;;;4.00;3.70;;;17.60;99.90;;;;;;4971439;28;20662;-68
2022/07/09 03:24:38;;;;;;;3.80;3.50;;;17.60;99.90;;;;;;4966901;28;20665;-67
2022/07/09 03:27:06;;;;;;;3.67;3.37;;;17.60;99.90;;;;;;4981798;28;20642;-68
2022/07/09 03:29:32;;;;;;;4.50;3.57;;;17.50;99.90;;;;;;4972336;28;20651;-68
2022/07/09 03:32:00;;;;;;;3.50;3.20;;;17.60;99.90;;;;;;4972470;28;20663;-68
2022/07/09 03:34:27;;;;;;;4.20;3.80;;;17.60;99.90;;;;;;4991672;28;20717;-68
2022/07/09 03:36:54;;;;;;;5.47;3.30;;;17.60;99.90;;;;;;4988045;28;20646;-68
2022/07/09 03:39:21;;;;;;;4.83;3.60;;;17.60;99.90;;;;;;4970599;28;20631;-68
2022/07/09 03:41:48;;;;;;;4.33;3.37;;;17.70;99.90;;;;;;4972061;28;20635;-68
2022/07/09 03:44:15;;;;;;;4.63;3.30;;;17.70;99.90;;;;;;4971550;28;20638;-69
2022/07/09 03:46:41;;;;;;;4.33;3.93;;;17.70;99.90;;;;;;4973473;28;20661;-68
2022/07/09 03:49:09;;;;;;;3.40;3.10;;;17.70;99.90;;;;;;4989778;28;20662;-69
2022/07/09 03:51:35;;;;;;;3.80;3.50;;;17.70;99.90;;;;;;4991644;28;20610;-68
2022/07/09 03:54:02;;;;;;;4.20;3.80;;;17.80;99.90;;;;;;4972005;28;21199;-68
2022/07/09 03:56:29;;;;;;;3.90;3.60;;;17.80;99.90;;;;;;4972781;28;20665;-68
2022/07/09 03:58:56;;;;;;;3.97;3.60;;;17.90;99.90;;;;;;4972939;28;20639;-68
2022/07/09 04:01:23;;;;;;;4.10;3.70;;;18.00;99.90;;;;;;4972508;28;20635;-68
2022/07/09 04:03:50;;;;;;;3.80;3.50;;;18.10;99.90;;;;;;4971699;28;20718;-68
2022/07/09 04:06:17;;;;;;;4.43;3.90;;;18.10;99.90;;;;;;4988969;28;20669;-67
2022/07/09 04:08:44;;;;;;;3.93;3.63;;;18.20;99.90;;;;;;4990742;28;20626;-68
2022/07/09 04:11:11;;;;;;;3.83;3.53;;;18.30;99.90;;;;;;4988996;28;20642;-68
2022/07/09 04:13:37;;;;;;;5.10;3.50;;;18.40;99.90;;;;;;4979737;28;20753;-69
2022/07/09 04:16:05;;;;;;;3.77;3.40;;;18.40;99.90;;;;;;4990978;28;20618;-68
2022/07/09 04:18:32;;;;;;;5.97;3.37;;;18.40;99.90;;;;;;4977059;28;20673;-68
2022/07/09 04:20:59;;;;;;;4.07;3.70;;;18.40;99.90;;;;;;4970823;28;20631;-69
2022/07/09 04:23:26;;;;;;;4.90;3.60;;;18.40;99.90;;;;;;4976396;28;20638;-68
2022/07/09 04:25:53;;;;;;;3.83;3.53;;;18.30;99.90;;;;;;4987693;28;21568;-67
2022/07/09 04:28:20;;;;;;;4.50;4.10;;;18.40;99.90;;;;;;4990124;28;20684;-65
2022/07/09 04:30:47;;;;;;;4.37;3.97;;;18.50;99.90;;;;;;4989622;28;20671;-66
2022/07/09 04:33:14;;;;;;;4.53;4.13;;;18.70;99.90;;;;;;4971468;28;20619;-69
2022/07/09 04:35:41;;;;;;;5.57;4.20;;;18.80;99.90;;;;;;4982819;28;21228;-67
2022/07/09 04:38:08;;;;;;;5.23;4.73;;;18.90;99.90;;;;;;4990421;28;20662;-68
2022/07/09 04:40:34;;;;;;;10.60;5.10;;;19.10;99.90;;;;;;4990438;28;21262;-68
2022/07/09 04:43:01;;;;;;;4.90;4.40;;;19.50;99.90;;;;;;4988278;28;20731;-68
2022/07/09 04:45:29;;;;;;;7.10;3.83;;;19.70;99.90;;;;;;4984454;28;20663;-68
2022/07/09 04:47:58;;;;;;;6.80;4.87;;;20.00;99.90;;;;;;4990833;28;21229;-68
2022/07/09 04:50:25;;;;;;;6.63;4.40;;;20.20;99.90;;;;;;4989245;28;20734;-68
2022/07/09 04:52:53;;;;;;;4.57;3.93;;;20.50;99.90;;;;;;4987592;28;20615;-69
2022/07/09 04:55:21;;;;;;;7.27;4.67;;;20.70;99.90;;;;;;4990487;28;21247;-68
2022/07/09 04:57:48;;;;;;;5.33;3.97;;;20.90;99.60;;;;;;4991621;28;20678;-68
2022/07/09 05:00:16;;;;;;;6.40;4.73;;;21.20;99.00;;;;;;4977053;28;20733;-67
2022/07/09 05:02:43;;;;;;;5.50;3.77;;;21.40;98.60;;;;;;4987021;28;20642;-69
2022/07/09 05:05:11;;;;;;;5.93;4.13;;;21.50;98.20;;;;;;4988656;28;20658;-67
2022/07/09 05:07:38;;;;;;;7.73;4.23;;;21.50;97.90;;;;;;4990790;28;20641;-67
2022/07/09 05:10:05;;;;;;;4.90;4.40;;;21.80;97.50;;;;;;4991429;28;20614;-67
2022/07/09 05:12:32;;;;;;;5.23;3.90;;;22.00;97.10;;;;;;4991003;28;20829;-67
2022/07/09 05:14:59;;;;;;;5.47;4.40;;;22.30;96.70;;;;;;4988727;28;20652;-68
2022/07/09 05:17:26;;;;;;;5.13;4.67;;;22.50;96.00;;;;;;4989119;28;21257;-67
2022/07/09 05:19:52;;;;;;;5.00;4.50;;;22.60;95.50;;;;;;4990439;28;21245;-67
2022/07/09 05:22:19;;;;;;;4.30;3.90;;;22.70;95.30;;;;;;4991039;28;20622;-67
2022/07/09 05:24:46;;;;;;;5.50;3.83;;;22.60;95.30;;;;;;4990846;28;20749;-66
2022/07/09 05:27:13;;;;;;;7.23;4.37;;;22.50;95.30;;;;;;4989815;28;20615;-68
2022/07/09 05:29:39;;;;;;;6.40;4.80;;;22.40;95.50;;;;;;5043129;23;20798;-64
2022/07/09 05:32:07;;;;;;;8.13;4.43;;;22.50;95.40;;;;;;4984619;28;21009;-65
2022/07/09 05:34:33;;;;;;;4.67;4.10;;;22.80;95.10;;;;;;4972563;28;20623;-64
2022/07/09 05:37:00;;;;;;;6.33;4.60;;;22.90;94.70;;;;;;4975270;28;20638;-65
2022/07/09 05:39:27;;;;;;;5.93;4.77;;;22.90;94.50;;;;;;4974325;28;20649;-66
2022/07/09 05:41:54;;;;;;;5.97;5.17;;;22.60;94.70;;;;;;4973749;28;20623;-64
2022/07/09 05:44:27;;;;;;;6.53;4.70;;;22.40;95.00;;;;;;4976261;28;21048;-65
2022/07/09 05:46:53;;;;;;;6.27;4.93;;;22.20;95.50;;;;;;4973956;28;20718;-67
2022/07/09 05:49:21;;;;;;;7.10;4.50;;;22.00;96.30;;;;;;4963925;28;20735;-68
2022/07/09 05:51:47;;;;;;;6.27;4.70;;;21.90;96.30;;;;;;4959129;28;20619;-68
2022/07/09 05:54:14;;;;;;;6.40;4.30;;;22.00;96.50;;;;;;4974239;28;21186;-67
2022/07/09 05:56:41;;;;;;;5.20;4.03;;;22.20;96.50;;;;;;4973657;28;20623;-67
2022/07/09 05:59:08;;;;;;;4.70;3.87;;;22.60;96.10;;;;;;4974080;28;20619;-67
2022/07/09 06:01:42;;;;;;;6.33;4.40;;;23.10;95.40;;;;;;4973854;28;20722;-65
2022/07/09 06:04:09;;;;;;;6.67;4.67;;;23.70;94.30;;;;;;4974004;28;20655;-65
2022/07/09 06:06:36;;;;;;;5.73;5.10;;;24.20;93.30;;;;;;4974329;28;20662;-66
2022/07/09 06:09:03;;;;;;;5.33;4.83;;;24.70;92.50;;;;;;4973507;28;20658;-66
2022/07/09 06:11:29;;;;;;;6.97;5.20;;;25.40;91.60;;;;;;4973361;28;20643;-66
2022/07/09 06:13:56;;;;;;;8.43;4.73;;;26.00;90.40;;;;;;4973792;28;20641;-66
2022/07/09 06:16:23;;;;;;;6.93;5.27;;;26.50;88.40;;;;;;4973892;28;20630;-66
2022/07/09 06:18:49;;;;;;;8.83;5.57;;;26.80;86.50;;;;;;4974152;28;20677;-66
2022/07/09 06:21:16;;;;;;;6.63;4.17;;;27.30;85.00;;;;;;4975686;28;20642;-66
2022/07/09 06:23:43;;;;;;;8.07;4.90;;;27.70;82.40;;;;;;4973093;28;20647;-68
2022/07/09 06:26:10;;;;;;;5.37;4.70;;;28.00;81.00;;;;;;4974147;28;20655;-68
2022/07/09 06:28:37;;;;;;;8.23;4.80;;;28.40;80.00;;;;;;4972560;28;20655;-68
2022/07/09 06:31:04;;;;;;;7.07;5.30;;;28.80;78.20;;;;;;4974023;28;20649;-68
2022/07/09 06:33:31;;;;;;;10.40;5.70;;;29.20;76.40;;;;;;4972940;28;21224;-68
2022/07/09 06:35:58;;;;;;;5.63;4.70;;;29.90;74.10;;;;;;4971982;28;20645;-67
2022/07/09 06:38:29;;;;;;;10.20;5.23;;;30.70;72.20;;;;;;4972765;28;20643;-68
2022/07/09 06:40:56;;;;;;;4.80;4.40;;;31.00;70.00;;;;;;4973140;28;20729;-68
2022/07/09 06:43:23;;;;;;;4.90;4.40;;;31.10;68.70;;;;;;4967512;28;20650;-68
2022/07/09 06:45:50;;;;;;;6.80;4.60;;;31.70;67.50;;;;;;4966786;28;20994;-68
2022/07/09 06:48:16;;;;;;;4.57;4.17;;;32.40;65.30;;;;;;4970964;28;20673;-67
2022/07/09 06:50:43;;;;;;;6.30;4.47;;;33.30;63.30;;;;;;4967804;28;21285;-68
2022/07/09 06:53:10;;;;;;;3.83;3.53;;;34.40;61.10;;;;;;4972253;28;20634;-67
2022/07/09 06:55:37;;;;;;;3.93;3.63;;;35.50;58.50;;;;;;4972846;28;20619;-68
2022/07/09 06:58:04;;;;;;;3.67;3.37;;;36.20;55.90;;;;;;4972315;28;21020;-68
2022/07/09 07:00:31;;;;;;;3.20;3.00;;;37.40;53.30;;;;;;4973298;28;21035;-67
2022/07/09 07:02:59;;;;;;;2.80;2.60;;;38.30;51.00;;;;;;4956636;28;21021;-68
2022/07/09 07:05:27;;;;;;;3.10;2.90;;;39.20;49.30;;;;;;4966433;28;20673;-68
2022/07/09 07:07:54;;;;;;;3.37;2.83;;;39.90;48.00;;;;;;4974108;28;20617;-68
2022/07/09 07:10:20;;;;;;;3.23;3.03;;;40.50;46.50;;;;;;4974052;28;20631;-68
2022/07/09 07:12:49;;;;;;;3.30;3.10;;;40.80;45.40;;;;;;4970640;28;20631;-68
2022/07/09 07:15:16;;;;;;;3.23;3.00;;;40.40;45.00;;;;;;4962077;28;20727;-68
2022/07/09 07:17:43;;;;;;;4.37;3.37;;;40.60;44.60;;;;;;4958036;28;21025;-68
2022/07/09 07:20:10;;;;;;;4.00;3.33;;;41.00;44.10;;;;;;4970417;28;20674;-68
2022/07/09 07:22:37;;;;;;;3.20;3.00;;;41.80;43.50;;;;;;4971886;28;20611;-68
2022/07/09 07:25:04;;;;;;;3.17;2.97;;;42.30;42.90;;;;;;4972945;28;20615;-67
2022/07/09 07:27:31;;;;;;;3.13;2.73;;;43.00;42.20;;;;;;4973019;28;20619;-67
2022/07/09 07:29:57;;;;;;;4.30;3.20;;;43.30;41.30;;;;;;4973408;28;20746;-67
2022/07/09 07:32:25;;;;;;;2.70;2.60;;;43.60;40.90;;;;;;4972257;28;21195;-68
2022/07/09 07:34:51;;;;;;;2.60;2.40;;;43.80;40.60;;;;;;4972430;28;20642;-68
2022/07/09 07:37:18;;;;;;;3.53;2.80;;;44.30;40.30;;;;;;4972280;28;20626;-68
2022/07/09 07:39:47;;;;;;;4.10;3.10;;;44.90;39.60;;;;;;4971529;28;20661;-67
2022/07/09 07:42:15;;;;;;;2.93;2.70;;;45.30;39.20;;;;;;4972327;28;20661;-68
2022/07/09 07:44:42;;;;;;;4.13;2.93;;;45.70;38.90;;;;;;4972191;28;21011;-68
2022/07/09 07:47:09;;;;;;;3.20;2.90;;;45.60;38.60;;;;;;4971492;28;20670;-68
2022/07/09 07:49:36;;;;;;;2.43;2.30;;;45.70;38.30;;;;;;4971770;28;20647;-68
2022/07/09 07:52:03;;;;;;;2.60;2.50;;;45.90;38.00;;;;;;4955571;28;20670;-68
2022/07/09 07:54:30;;;;;;;2.50;2.30;;;46.00;37.80;;;;;;4973762;28;20627;-68
2022/07/09 07:56:57;;;;;;;2.40;2.30;;;46.50;37.70;;;;;;4972177;28;20638;-67
2022/07/09 07:59:23;;;;;;;2.20;2.10;;;46.70;37.10;;;;;;4969288;28;21237;-68
2022/07/09 08:01:50;;;;;;;2.50;2.40;;;46.90;36.80;;;;;;4966040;28;20626;-69
2022/07/09 08:04:17;;;;;;;2.53;2.43;;;47.20;36.50;;;;;;4969999;28;21094;-68
2022/07/09 08:06:44;;;;;;;2.67;2.47;;;47.20;36.20;;;;;;4970940;28;20662;-68
2022/07/09 08:09:11;;;;;;;2.20;2.10;;;47.00;36.10;;;;;;4970826;28;20719;-68
2022/07/09 08:11:37;;;;;;;3.37;2.90;;;46.80;36.20;;;;;;4973106;28;20646;-67
2022/07/09 08:14:06;;;;;;;2.83;2.73;;;46.60;36.40;;;;;;4971448;28;20636;-67
2022/07/09 08:16:33;;;;;;;2.80;2.60;;;46.50;36.40;;;;;;4972036;28;20641;-67
2022/07/09 08:19:00;;;;;;;4.30;3.50;;;46.60;36.30;;;;;;4971802;28;21192;-68
2022/07/09 08:21:27;;;;;;;4.20;3.20;;;46.70;36.10;;;;;;4970267;28;20627;-68
2022/07/09 08:23:54;;;;;;;3.97;3.57;;;46.70;36.20;;;;;;4972347;28;21043;-67
2022/07/09 08:26:22;;;;;;;2.97;2.80;;;46.80;35.90;;;;;;4951898;28;20755;-69
2022/07/09 08:28:49;;;;;;;2.80;2.60;;;46.00;36.20;;;;;;4953380;28;20699;-69
2022/07/09 08:31:17;;;;;;;2.97;2.77;;;46.00;36.40;;;;;;4971510;28;20757;-67
2022/07/09 08:33:45;;;;;;;2.80;2.73;;;46.40;36.20;;;;;;4972588;28;20655;-67
2022/07/09 08:36:12;;;;;;;3.43;2.70;;;46.80;36.10;;;;;;4972349;28;20623;-67
2022/07/09 08:38:39;;;;;;;2.73;2.57;;;47.30;35.90;;;;;;4964743;28;20670;-67
2022/07/09 08:41:06;;;;;;;2.67;2.57;;;47.90;35.50;;;;;;4952209;28;20640;-68
2022/07/09 08:43:35;;;;;;;3.80;3.50;;;47.80;35.40;;;;;;4950951;28;20644;-68
2022/07/09 08:46:02;;;;;;;2.73;2.63;;;47.80;35.10;;;;;;4964107;28;20662;-69
2022/07/09 08:48:33;;;;;;;3.20;2.60;;;47.70;34.80;;;;;;4971620;28;20949;-67
2022/07/09 08:51:01;;;;;;;2.77;2.57;;;48.00;34.70;;;;;;4970990;28;20742;-68
2022/07/09 08:53:29;;;;;;;3.20;3.00;;;47.80;34.80;;;;;;4965885;28;20623;-69
2022/07/09 08:55:57;;;;;;;3.10;3.00;;;46.90;34.90;;;;;;4966420;28;21086;-68
2022/07/09 08:58:24;;;;;;;3.00;2.80;;;44.10;35.80;;;;;;4963091;28;20633;-69
2022/07/09 09:00:51;;;;;;;5.17;3.03;;;40.70;38.00;;;;;;4964234;28;20685;-68
2022/07/09 09:03:18;;;;;;;3.67;3.10;;;39.00;39.60;;;;;;4951571;28;20717;-69
2022/07/09 09:06:03;;;;;;;3.87;3.67;;;37.50;41.20;;;;;;4951886;28;20624;-68
2022/07/09 09:08:38;;;;;;;7.80;4.80;;;35.70;43.30;;;;;;4958130;28;20646;-69
2022/07/09 09:11:07;;;;;;;3.00;2.90;;;34.00;45.00;;;;;;4952808;28;21025;-68
2022/07/09 09:13:40;;;;;;;3.63;2.93;;;32.70;46.40;;;;;;4962752;28;20635;-68
2022/07/09 09:16:09;;;;;;;3.37;3.17;;;31.70;48.10;;;;;;4963013;28;21207;-68
2022/07/09 09:18:44;;;;;;;3.73;3.53;;;30.80;49.60;;;;;;4970941;28;20684;-68
2022/07/09 09:21:13;;;;;;;3.80;3.43;;;29.80;51.70;;;;;;4971172;28;20695;-67
2022/07/09 09:23:49;;;;;;;6.13;3.93;;;29.20;52.90;;;;;;4971974;28;20629;-68
2022/07/09 09:26:18;;;;;;;4.43;3.70;;;28.90;53.50;;;;;;4965766;28;20765;-67
2022/07/09 09:28:49;;;;;;;6.93;3.40;;;28.90;53.70;;;;;;4971217;28;20626;-67
2022/07/09 09:31:26;;;;;;;4.83;3.73;;;28.60;54.00;;;;;;4970640;28;20663;-67
2022/07/09 09:34:15;;;;;;;4.97;3.30;;;28.50;54.30;;;;;;4952341;28;20711;-68
2022/07/09 09:36:46;;;;;;;3.07;2.87;;;28.50;54.40;;;;;;4952094;28;20604;-67
2022/07/09 09:39:21;;;;;;;2.83;2.50;;;28.70;54.90;;;;;;4967860;28;20643;-67
2022/07/09 09:41:57;;;;;;;5.40;3.40;;;30.50;52.70;;;;;;4955515;28;20619;-67
2022/07/09 09:44:30;;;;;;;2.77;2.57;;;32.00;50.40;;;;;;4951931;29;21205;-68
2022/07/09 09:46:58;;;;;;;6.57;2.57;;;35.70;46.90;;;;;;4971096;28;20758;-68
2022/07/09 09:49:25;;;;;;;4.20;3.40;;;39.80;43.00;;;;;;4966433;28;21264;-68
2022/07/09 09:52:02;;;;;;;2.80;2.60;;;41.20;40.80;;;;;;4966618;28;20712;-68
2022/07/09 09:54:32;;;;;;;3.03;2.70;;;42.70;39.20;;;;;;4970036;28;21231;-69
2022/07/09 09:56:59;;;;;;;2.93;2.73;;;39.90;40.50;;;;;;4970719;28;20825;-68
2022/07/09 09:59:26;;;;;;;4.30;3.17;;;37.60;42.40;;;;;;4969980;28;21003;-68
2022/07/09 10:01:53;;;;;;;8.63;7.67;;;35.10;44.50;;;;;;4961006;28;20646;-68
2022/07/09 10:04:21;;;;;;;3.80;2.90;;;33.30;46.60;;;;;;4969684;28;20639;-68
2022/07/09 10:06:48;;;;;;;2.40;2.20;;;32.00;48.40;;;;;;4970595;28;20657;-67
2022/07/09 10:09:15;;;;;;;2.70;2.50;;;31.50;49.60;;;;;;4970483;28;20637;-68
2022/07/09 10:11:46;;;;;;;2.47;2.27;;;31.10;50.10;;;;;;4972050;28;20710;-67
2022/07/09 10:14:28;;;;;;;2.43;2.33;;;31.10;50.90;;;;;;4960108;28;20632;-68
2022/07/09 10:16:55;;;;;;;8.87;6.50;;;31.50;49.60;;;;;;4965015;28;20733;-67
2022/07/09 10:19:25;;;;;;;2.57;2.47;;;32.30;48.50;;;;;;4960146;28;21265;-68
2022/07/09 10:21:54;;;;;;;2.07;1.97;;;33.20;47.70;;;;;;4954035;28;20620;-68
2022/07/09 10:24:31;;;;;;;2.17;2.07;;;33.20;47.20;;;;;;4955473;28;20662;-68
2022/07/09 10:27:12;;;;;;;1.90;1.80;;;32.80;47.80;;;;;;4974150;28;20650;-68
2022/07/09 10:30:04;;;;;;;2.23;2.13;;;32.60;48.20;;;;;;4958289;28;20668;-68
2022/07/09 10:32:32;;;;;;;2.47;2.37;;;32.80;48.20;;;;;;4953319;28;20730;-68
2022/07/09 10:35:04;;;;;;;2.57;2.43;;;32.60;48.30;;;;;;4960065;28;20759;-68
2022/07/09 10:37:31;;;;;;;2.83;2.40;;;32.20;48.60;;;;;;4954303;28;20624;-67
2022/07/09 10:40:18;;;;;;;2.33;2.23;;;31.70;49.30;;;;;;4969298;28;21037;-68
2022/07/09 10:42:57;;;;;;;2.83;2.63;;;31.20;50.10;;;;;;4972027;28;20989;-68
2022/07/09 10:45:31;;;;;;;2.53;2.27;;;31.30;50.10;;;;;;4970663;28;20618;-68
2022/07/09 10:47:59;;;;;;;2.20;2.10;;;31.30;50.00;;;;;;4972242;28;20713;-73
2022/07/09 10:50:28;;;;;;;2.57;2.47;;;31.50;49.70;;;;;;4973500;28;20643;-69
2022/07/09 10:52:56;;;;;;;2.20;2.10;;;31.70;49.50;;;;;;4969787;28;20646;-67
2022/07/09 10:55:25;;;;;;;2.40;2.20;;;31.60;49.40;;;;;;4971215;28;20640;-68
2022/07/09 10:57:53;;;;;;;2.20;2.10;;;31.50;49.60;;;;;;4971150;28;20627;-68
2022/07/09 11:00:28;;;;;;;2.10;1.90;;;31.20;50.00;;;;;;4974169;28;20651;-67
2022/07/09 11:03:03;;;;;;;2.30;2.20;;;31.30;50.10;;;;;;4974574;28;20684;-68
2022/07/09 11:05:48;;;;;;;3.60;2.80;;;31.50;49.60;;;;;;4974179;28;20705;-68
2022/07/09 11:08:15;;;;;;;2.10;2.00;;;31.70;49.40;;;;;;4974377;28;20666;-67
2022/07/09 11:10:42;;;;;;;2.30;2.10;;;31.70;48.70;;;;;;4974198;28;20739;-68
2022/07/09 11:13:16;;;;;;;2.37;2.27;;;31.70;48.80;;;;;;4974443;28;20624;-67
2022/07/09 11:15:43;;;;;;;1.80;1.80;;;31.40;49.00;;;;;;4989084;28;21205;-68
2022/07/09 11:18:15;;;;;;;2.70;2.60;;;31.00;49.50;;;;;;4973800;28;20710;-66
2022/07/09 11:20:46;;;;;;;2.30;2.20;;;30.70;50.10;;;;;;4973688;28;20738;-66
2022/07/09 11:23:16;;;;;;;2.10;2.00;;;30.30;49.80;;;;;;4973871;28;20627;-67
2022/07/09 11:25:44;;;;;;;2.20;2.10;;;29.80;51.00;;;;;;4974057;28;20634;-66
2022/07/09 11:28:25;;;;;;;2.50;2.40;;;29.50;51.30;;;;;;4973883;28;20659;-66
2022/07/09 11:31:03;;;;;;;2.67;1.93;;;29.40;51.20;;;;;;4986946;23;20790;-69
2022/07/09 11:36:20;;;;;;;3.07;2.30;;;29.20;52.00;;;;;;4973390;28;20625;-70
2022/07/09 11:38:48;;;;;;;2.37;2.27;;;28.90;53.00;;;;;;4973246;28;20631;-70
2022/07/09 11:41:15;;;;;;;2.20;2.10;;;28.80;53.10;;;;;;4961537;28;21279;-70
2022/07/09 11:43:49;;;;;;;2.90;2.80;;;29.00;53.30;;;;;;4954351;28;20628;-70
2022/07/09 11:46:18;;;;;;;2.87;2.67;;;28.90;53.60;;;;;;4954177;28;20624;-70
2022/07/09 11:48:50;;;;;;;2.77;2.57;;;29.00;53.20;;;;;;4952036;28;21069;-69
2022/07/09 11:51:46;;;;;;;2.23;2.13;;;28.90;53.50;;;;;;4953295;28;21005;-70
2022/07/09 11:54:13;;;;;;;2.40;2.30;;;28.80;53.30;;;;;;4945862;28;20663;-69
2022/07/09 11:56:45;;;;;;;2.23;2.13;;;28.70;53.40;;;;;;4954506;28;20642;-70
2022/07/09 11:59:12;;;;;;;2.53;2.43;;;28.60;52.60;;;;;;4954264;28;20719;-70
2022/07/09 12:01:39;;;;;;;1.97;1.87;;;28.60;52.20;;;;;;4953715;28;20648;-70
2022/07/09 12:04:06;;;;;;;2.43;2.33;;;28.70;52.70;;;;;;4963535;28;20627;-72
2022/07/09 12:06:33;;;;;;;3.10;2.90;;;28.60;52.60;;;;;;4958426;28;21195;-69
2022/07/09 12:09:02;;;;;;;2.47;2.37;;;28.50;53.10;;;;;;4953901;28;20621;-68
2022/07/09 12:11:30;;;;;;;2.33;2.23;;;28.50;53.30;;;;;;4953704;28;20640;-70
2022/07/09 12:13:57;;;;;;;2.13;2.03;;;28.30;53.40;;;;;;4953848;28;21006;-70
2022/07/09 12:16:24;;;;;;;2.07;1.97;;;28.30;53.30;;;;;;4953865;28;20708;-67
2022/07/09 12:18:51;;;;;;;2.07;1.97;;;28.20;52.40;;;;;;4953764;28;20708;-70
2022/07/09 12:21:19;;;;;;;1.80;1.80;;;28.20;52.50;;;;;;4953797;28;20648;-69
2022/07/09 12:23:45;;;;;;;1.87;1.87;;;28.30;52.10;;;;;;4953697;28;20628;-69
2022/07/09 12:26:12;;;;;;;1.83;1.83;;;28.30;52.00;;;;;;4953704;28;20626;-70
2022/07/09 12:28:39;;;;;;;1.80;1.70;;;28.50;51.00;;;;;;4953097;28;20668;-69
2022/07/09 12:31:06;;;;;;;2.47;1.60;;;28.60;51.30;;;;;;4953529;28;20718;-69
2022/07/09 12:33:33;;;;;;;2.20;2.00;;;28.50;50.80;;;;;;4953627;28;21276;-70
2022/07/09 12:35:59;;;;;;;1.70;1.70;;;28.70;51.00;;;;;;4953811;28;21079;-69
2022/07/09 12:38:26;;;;;;;2.30;1.80;;;29.10;50.60;;;;;;4953420;28;21230;-69
2022/07/09 12:40:53;;;;;;;1.10;1.10;;;29.30;49.80;;;;;;4953110;28;20651;-70
2022/07/09 12:43:19;;;;;;;3.70;2.07;;;29.40;49.30;;;;;;4952362;28;20624;-67
2022/07/09 12:45:46;;;;;;;3.00;2.80;;;29.10;49.10;;;;;;4950627;28;20624;-68
2022/07/09 12:48:13;;;;;;;2.90;2.70;;;29.20;49.60;;;;;;4952960;28;20687;-70
2022/07/09 12:50:40;;;;;;;1.80;1.70;;;29.30;49.40;;;;;;4952138;28;20647;-70
2022/07/09 12:53:07;;;;;;;1.83;1.73;;;29.40;49.70;;;;;;4956605;28;20711;-69